Time;durP1;ratioP1;P1;durP2;ratioP2;P2;SDS_P1;SDS_P2;PMS_P1;PMS_P2;Temp;Humidity;BMP_temperature;BMP_pressure;BME280_temperature;BME280_humidity;BME280_pressure;Samples;Min_cycle;Max_cycle;Signal;HPM_P1;HPM_P2
2022/04/30 00:01:53;;;;;;;11.52;8.20;;;;;;;7.24;71.80;102817.63;4964909;28;20034;-78
2022/04/30 00:04:18;;;;;;;14.10;8.07;;;;;;;7.22;72.00;102815.03;4971233;28;20027;-78
2022/04/30 00:06:44;;;;;;;11.18;7.75;;;;;;;7.20;71.61;102822.06;4971613;28;20171;-77
2022/04/30 00:09:09;;;;;;;11.90;7.80;;;;;;;7.16;71.75;102814.31;4970820;28;20042;-77
2022/04/30 00:11:34;;;;;;;11.52;7.75;;;;;;;7.10;71.92;102812.75;4970571;28;20057;-78
2022/04/30 00:13:59;;;;;;;12.23;7.97;;;;;;;7.09;71.97;102818.03;4971777;28;20034;-78
2022/04/30 00:16:25;;;;;;;10.90;7.63;;;;;;;7.06;72.12;102812.88;4971985;28;20058;-77
2022/04/30 00:18:50;;;;;;;11.50;7.18;;;;;;;7.01;72.40;102820.00;4968862;28;20034;-77
2022/04/30 00:21:15;;;;;;;8.60;6.63;;;;;;;6.97;72.76;102819.22;4970322;28;20333;-78
2022/04/30 00:23:41;;;;;;;11.27;7.25;;;;;;;6.96;72.88;102816.66;4971773;28;20027;-78
2022/04/30 00:26:07;;;;;;;10.70;7.38;;;;;;;6.91;73.29;102820.25;4971110;28;20106;-78
2022/04/30 00:28:32;;;;;;;9.82;6.93;;;;;;;6.89;73.45;102815.97;4972107;28;20023;-77
2022/04/30 00:30:57;;;;;;;9.35;6.85;;;;;;;6.89;72.97;102822.06;4971237;28;20450;-77
2022/04/30 00:33:23;;;;;;;9.48;6.47;;;;;;;6.87;72.86;102817.75;4971791;28;20158;-76
2022/04/30 00:35:48;;;;;;;8.38;6.10;;;;;;;6.84;73.28;102828.31;5003637;28;20046;-76
2022/04/30 00:38:15;;;;;;;9.60;6.50;;;;;;;6.83;72.84;102817.00;4991256;28;20027;-77
2022/04/30 00:40:42;;;;;;;8.52;6.13;;;;;;;6.76;73.25;102823.25;4987181;28;20042;-76
2022/04/30 00:43:07;;;;;;;8.77;6.40;;;;;;;6.75;73.42;102818.94;4970278;28;20034;-77
2022/04/30 00:45:33;;;;;;;9.77;6.57;;;;;;;6.72;73.49;102819.00;4974558;28;20398;-77
2022/04/30 00:47:58;;;;;;;8.70;6.45;;;;;;;6.69;73.90;102813.84;4973511;28;20035;-77
2022/04/30 00:50:28;;;;;;;10.90;6.32;;;;;;;6.63;73.50;102813.16;4963157;28;20038;-76
2022/04/30 00:52:57;;;;;;;10.77;5.70;;;;;;;6.61;73.74;102815.81;4969188;28;20085;-76
2022/04/30 00:55:27;;;;;;;9.95;5.57;;;;;;;6.56;74.14;102809.84;4971979;28;20368;-76
2022/04/30 00:57:54;;;;;;;8.18;6.03;;;;;;;6.54;74.23;102806.41;5002168;28;20038;-77
2022/04/30 01:00:20;;;;;;;7.15;5.70;;;;;;;6.55;74.41;102803.75;4969907;28;20039;-78
2022/04/30 01:02:45;;;;;;;7.82;5.90;;;;;;;6.53;74.37;102802.09;4970688;28;20095;-76
2022/04/30 01:05:10;;;;;;;11.27;6.10;;;;;;;6.52;74.09;102803.84;4970352;28;20026;-78
2022/04/30 01:07:39;;;;;;;7.90;5.60;;;;;;;6.44;74.08;102800.56;4970376;28;20030;-76
2022/04/30 01:10:07;;;;;;;9.00;6.03;;;;;;;6.43;74.32;102801.47;4970379;28;20433;-75
2022/04/30 01:12:34;;;;;;;8.00;6.00;;;;;;;6.38;75.12;102812.91;4972229;28;20051;-77
2022/04/30 01:15:03;;;;;;;8.52;6.00;;;;;;;6.37;74.90;102800.75;4970074;28;20051;-77
2022/04/30 01:17:29;;;;;;;11.50;5.85;;;;;;;6.35;74.58;102805.16;4970808;28;20023;-78
2022/04/30 01:19:54;;;;;;;8.88;5.80;;;;;;;6.33;74.95;102801.72;4969353;28;20395;-76
2022/04/30 01:22:34;;;;;;;8.98;5.38;;;;;;;6.28;75.71;102802.69;4969696;28;20030;-75
2022/04/30 01:25:04;;;;;;;9.70;6.05;;;;;;;6.24;75.42;102794.97;4970245;28;20034;-77
2022/04/30 01:27:30;;;;;;;8.38;6.03;;;;;;;6.24;75.61;102801.06;4968769;28;20031;-76
2022/04/30 01:29:59;;;;;;;10.20;5.63;;;;;;;6.17;76.28;102788.19;4970512;28;20099;-77
2022/04/30 01:38:11;;;;;;;10.32;5.93;;;;;;;6.16;76.04;102783.84;4965624;28;20041;-76
2022/04/30 01:40:37;;;;;;;10.48;5.97;;;;;;;6.14;76.37;102789.13;4970848;28;20159;-76
2022/04/30 01:43:05;;;;;;;7.18;5.75;;;;;;;6.13;76.56;102783.94;4971636;28;20038;-76
2022/04/30 01:45:31;;;;;;;9.18;6.07;;;;;;;6.12;76.43;102790.06;4971959;28;20104;-76
2022/04/30 01:47:59;;;;;;;10.40;6.13;;;;;;;6.08;76.37;102794.50;4972738;28;20443;-76
2022/04/30 01:50:28;;;;;;;8.65;6.30;;;;;;;6.06;76.63;102791.06;4969745;28;20474;-76
2022/04/30 01:52:54;;;;;;;7.60;5.90;;;;;;;6.05;76.69;102788.47;4961408;28;20550;-77
2022/04/30 01:55:19;;;;;;;10.05;6.57;;;;;;;6.02;77.02;102784.19;4970629;28;20431;-77
2022/04/30 01:57:45;;;;;;;8.82;6.18;;;;;;;6.00;77.33;102788.56;4970494;28;20027;-76
2022/04/30 02:00:14;;;;;;;12.38;6.05;;;;;;;5.98;77.24;102788.59;4968931;28;20062;-76
2022/04/30 02:02:42;;;;;;;8.93;6.25;;;;;;;5.97;77.46;102780.81;4966140;28;20435;-76
2022/04/30 02:05:09;;;;;;;11.38;6.75;;;;;;;5.96;77.47;102776.47;4969116;28;20031;-76
2022/04/30 02:07:38;;;;;;;9.02;6.50;;;;;;;5.93;77.28;102772.19;4970065;28;20034;-76
2022/04/30 02:10:06;;;;;;;8.00;6.40;;;;;;;5.93;77.40;102772.19;4968400;28;20031;-77
2022/04/30 02:12:32;;;;;;;11.35;7.20;;;;;;;5.92;77.58;102777.44;4971122;28;20038;-76
2022/04/30 02:14:59;;;;;;;8.35;6.43;;;;;;;5.87;77.79;102774.91;4968545;28;20126;-77
2022/04/30 02:17:26;;;;;;;10.75;7.20;;;;;;;5.83;77.26;102761.97;4969842;28;20026;-77
2022/04/30 02:22:38;;;;;;;12.02;7.00;;;;;;;5.82;77.51;102765.47;4969920;28;20138;-77
2022/04/30 02:25:09;;;;;;;13.30;7.20;;;;;;;5.77;78.11;102768.19;4968845;28;20430;-76
2022/04/30 02:27:38;;;;;;;14.10;7.00;;;;;;;5.73;78.55;102766.53;4969604;28;20094;-76
2022/04/30 02:30:06;;;;;;;11.52;7.47;;;;;;;5.72;78.07;102769.19;4970012;28;20027;-76
2022/04/30 02:32:46;;;;;;;10.25;7.35;;;;;;;5.71;78.21;102757.88;4983831;28;20031;-76
2022/04/30 02:35:14;;;;;;;14.82;7.43;;;;;;;5.68;78.31;102762.31;5003198;28;20034;-76
2022/04/30 02:37:40;;;;;;;14.93;7.88;;;;;;;5.64;78.40;102759.78;5004045;28;20037;-76
2022/04/30 02:40:06;;;;;;;11.07;7.22;;;;;;;5.61;78.46;102762.47;4972920;28;20023;-77
2022/04/30 02:42:32;;;;;;;11.32;7.55;;;;;;;5.61;78.95;102761.59;4972905;28;20073;-78
2022/04/30 02:44:57;;;;;;;10.63;7.72;;;;;;;5.58;79.10;102762.50;4987079;28;20041;-77
2022/04/30 02:47:23;;;;;;;14.18;7.63;;;;;;;5.56;78.88;102759.06;4972935;28;20125;-76
2022/04/30 02:49:48;;;;;;;11.70;7.63;;;;;;;5.53;79.64;102759.13;4972742;28;20031;-77
2022/04/30 02:52:13;;;;;;;11.35;7.55;;;;;;;5.48;79.21;102755.78;4973072;28;20031;-77
2022/04/30 02:54:41;;;;;;;12.88;8.10;;;;;;;5.44;79.00;102759.34;4974028;28;20027;-77
2022/04/30 02:57:07;;;;;;;12.45;8.23;;;;;;;5.41;79.39;102759.41;4972362;28;20035;-77
2022/04/30 03:02:16;;;;;;;11.88;8.13;;;;;;;5.31;79.73;102752.69;4973633;28;20058;-76
2022/04/30 03:04:41;;;;;;;14.57;8.20;;;;;;;5.28;79.57;102753.63;4973179;28;20486;-76
2022/04/30 03:07:11;;;;;;;11.90;8.68;;;;;;;5.23;79.81;102754.59;4972698;28;20054;-76
2022/04/30 03:09:37;;;;;;;14.75;8.15;;;;;;;5.17;80.14;102754.72;5004553;28;20363;-77
2022/04/30 03:12:02;;;;;;;9.82;8.50;;;;;;;5.13;80.70;102755.66;4973551;28;20031;-76
2022/04/30 03:14:27;;;;;;;13.82;8.50;;;;;;;5.08;80.38;102754.91;4971817;28;20455;-77
2022/04/30 03:22:21;;;;;;;13.77;9.23;;;;;;;4.98;81.08;102749.88;4972253;28;20105;-76
2022/04/30 03:24:46;;;;;;;12.32;8.85;;;;;;;4.95;80.81;102744.72;4972936;28;20030;-77
2022/04/30 03:27:12;;;;;;;12.40;8.70;;;;;;;4.94;81.04;102747.38;4972861;28;20136;-77
2022/04/30 03:29:37;;;;;;;14.27;9.48;;;;;;;4.89;81.57;102739.63;4971471;28;20037;-77
2022/04/30 03:32:03;;;;;;;11.68;9.07;;;;;;;4.87;81.63;102738.81;4973581;28;20029;-78
2022/04/30 03:34:32;;;;;;;14.13;9.30;;;;;;;4.85;81.56;102740.59;4971289;28;20035;-78
2022/04/30 03:36:58;;;;;;;14.65;9.60;;;;;;;4.83;81.93;102734.53;4972982;28;20470;-78
2022/04/30 03:39:23;;;;;;;12.82;9.90;;;;;;;4.79;82.03;102738.06;4971984;28;20050;-77
2022/04/30 03:41:49;;;;;;;13.13;9.60;;;;;;;4.77;82.14;102729.41;4971256;28;20157;-77
2022/04/30 03:44:15;;;;;;;11.13;8.65;;;;;;;4.71;82.60;102729.53;4971728;28;20038;-77
2022/04/30 03:46:40;;;;;;;12.60;9.30;;;;;;;4.68;82.21;102735.69;4971657;28;20379;-77
2022/04/30 03:49:06;;;;;;;16.77;10.02;;;;;;;4.65;82.32;102729.66;4985469;28;20081;-77
2022/04/30 03:51:31;;;;;;;13.02;9.88;;;;;;;4.63;82.16;102740.13;4971404;28;20105;-77
2022/04/30 03:53:57;;;;;;;16.55;10.32;;;;;;;4.61;82.62;102733.22;4970063;28;20027;-77
2022/04/30 03:56:24;;;;;;;15.10;9.70;;;;;;;4.58;83.39;102728.06;4971264;28;20049;-77
2022/04/30 03:58:49;;;;;;;15.43;9.52;;;;;;;4.56;83.21;102735.06;4986462;28;20046;-77
2022/04/30 04:01:18;;;;;;;15.95;10.45;;;;;;;4.51;82.38;102731.69;4995514;28;20070;-78
2022/04/30 04:03:44;;;;;;;18.05;10.00;;;;;;;4.48;82.65;102735.22;4967042;28;20050;-78
2022/04/30 04:06:09;;;;;;;20.38;10.90;;;;;;;4.42;83.08;102737.06;4970885;28;20026;-77
2022/04/30 04:08:35;;;;;;;17.67;9.95;;;;;;;4.40;82.81;102732.75;4970365;28;20053;-78
2022/04/30 04:11:01;;;;;;;13.73;10.40;;;;;;;4.39;83.16;102738.81;4969391;28;20031;-77
2022/04/30 04:18:56;;;;;;;14.52;10.48;;;;;;;4.34;83.47;102740.66;4972076;28;20147;-77
2022/04/30 04:21:22;;;;;;;13.63;10.15;;;;;;;4.32;83.76;102742.41;4971782;28;20039;-77
2022/04/30 04:26:32;;;;;;;19.08;10.55;;;;;;;4.25;83.87;102725.19;4968124;28;20061;-76
2022/04/30 04:28:58;;;;;;;17.20;10.90;;;;;;;4.25;83.93;102751.22;4972446;28;20030;-76
2022/04/30 04:31:23;;;;;;;15.30;11.35;;;;;;;4.22;83.73;102738.25;4972459;28;20027;-76
2022/04/30 04:33:50;;;;;;;16.98;11.23;;;;;;;4.22;83.79;102753.03;4971875;28;20042;-76
2022/04/30 04:36:16;;;;;;;16.27;11.00;;;;;;;4.19;84.51;102748.72;4970643;28;20128;-76
2022/04/30 04:38:42;;;;;;;14.85;10.75;;;;;;;4.17;83.94;102741.84;4971779;28;20066;-77
2022/04/30 04:41:07;;;;;;;14.40;10.80;;;;;;;4.17;84.73;102753.13;4971193;28;20026;-76
2022/04/30 04:43:32;;;;;;;16.50;11.00;;;;;;;4.18;84.76;102748.75;4972686;28;20109;-77
2022/04/30 04:45:58;;;;;;;18.58;11.35;;;;;;;4.18;84.53;102753.97;4971673;28;20046;-77
2022/04/30 04:48:23;;;;;;;19.65;10.25;;;;;;;4.19;84.91;102756.56;4998445;28;20057;-77
2022/04/30 04:50:49;;;;;;;14.77;11.23;;;;;;;4.17;85.21;102763.53;4970549;28;20041;-76
2022/04/30 04:53:14;;;;;;;17.42;11.93;;;;;;;4.15;85.24;102757.50;4970449;28;20038;-76
2022/04/30 04:55:40;;;;;;;17.63;11.68;;;;;;;4.15;85.44;102762.69;4972872;28;20011;-76
2022/04/30 04:58:05;;;;;;;19.33;11.50;;;;;;;4.17;85.81;102766.13;4969660;28;20026;-76
2022/04/30 05:00:31;;;;;;;16.02;11.88;;;;;;;4.17;85.79;102776.56;4971400;28;20037;-76
2022/04/30 05:02:57;;;;;;;21.30;12.75;;;;;;;4.16;86.29;102771.38;4972766;28;20027;-76
2022/04/30 05:05:22;;;;;;;18.20;12.57;;;;;;;4.16;85.98;102777.44;4969738;28;20062;-76
2022/04/30 05:07:48;;;;;;;19.40;12.85;;;;;;;4.21;86.32;102779.97;4968945;28;20062;-76
2022/04/30 05:10:13;;;;;;;17.30;12.52;;;;;;;4.20;86.76;102784.31;4970635;28;20031;-76
2022/04/30 05:12:38;;;;;;;23.67;13.48;;;;;;;4.21;87.08;102786.03;4980916;28;20083;-77
2022/04/30 05:15:04;;;;;;;22.98;13.45;;;;;;;4.22;87.29;102779.94;4969874;28;20057;-76
2022/04/30 05:17:31;;;;;;;18.33;13.38;;;;;;;4.25;87.29;102782.50;4970496;28;20061;-76
2022/04/30 05:19:56;;;;;;;18.52;13.63;;;;;;;4.25;87.07;102779.03;4969293;28;20109;-76
2022/04/30 05:22:22;;;;;;;18.65;13.05;;;;;;;4.26;87.20;102781.63;4971881;28;20606;-77
2022/04/30 05:24:47;;;;;;;18.25;12.13;;;;;;;4.27;87.58;102772.91;4997073;28;20443;-77
2022/04/30 05:27:12;;;;;;;19.40;13.35;;;;;;;4.29;87.65;102784.16;4966289;28;20042;-77
2022/04/30 05:29:38;;;;;;;20.92;13.52;;;;;;;4.34;87.60;102786.69;4970500;28;20054;-74
2022/04/30 05:32:04;;;;;;;20.52;12.63;;;;;;;4.38;87.17;102784.00;4970539;28;20031;-75
2022/04/30 05:34:29;;;;;;;24.35;14.07;;;;;;;4.43;87.42;102783.09;4969637;28;20037;-75
2022/04/30 05:36:54;;;;;;;24.25;14.25;;;;;;;4.47;88.04;102787.38;4969913;28;20030;-75
2022/04/30 05:39:21;;;;;;;17.88;14.10;;;;;;;4.51;87.65;102782.06;4970204;28;20030;-75
2022/04/30 05:41:46;;;;;;;26.30;14.68;;;;;;;4.52;88.25;102781.19;4968084;28;20045;-79
2022/04/30 05:44:12;;;;;;;20.23;14.30;;;;;;;4.60;88.14;102786.25;4981365;28;20118;-79
2022/04/30 05:46:37;;;;;;;22.52;14.27;;;;;;;4.64;88.49;102780.09;4969062;28;20159;-79
2022/04/30 05:49:05;;;;;;;21.52;14.45;;;;;;;4.68;88.36;102782.59;4969886;28;20038;-78
2022/04/30 05:51:31;;;;;;;20.98;13.77;;;;;;;4.73;88.62;102785.13;4984005;28;20055;-79
2022/04/30 05:53:57;;;;;;;23.58;13.18;;;;;;;4.78;87.66;102788.50;4969138;28;20023;-79
2022/04/30 05:56:22;;;;;;;19.90;14.02;;;;;;;4.82;87.87;102787.59;4968768;28;20023;-79
2022/04/30 05:58:48;;;;;;;20.70;13.35;;;;;;;4.87;88.91;102787.50;4983789;28;20038;-79
2022/04/30 06:01:13;;;;;;;22.33;14.30;;;;;;;4.91;89.05;102790.00;4969160;28;20467;-80
2022/04/30 06:03:39;;;;;;;18.20;13.52;;;;;;;5.01;89.12;102795.91;4983060;28;20041;-74
2022/04/30 06:06:05;;;;;;;22.00;13.48;;;;;;;5.07;89.03;102794.94;4983440;28;20035;-76
2022/04/30 06:08:31;;;;;;;25.23;15.07;;;;;;;5.14;89.05;102786.09;4984307;28;20042;-77
2022/04/30 06:10:56;;;;;;;21.65;14.40;;;;;;;5.19;89.71;102789.44;4973562;28;20027;-77
2022/04/30 06:13:22;;;;;;;21.13;13.93;;;;;;;5.24;89.36;102790.25;4972822;28;20026;-77
2022/04/30 06:15:47;;;;;;;21.20;13.27;;;;;;;5.29;87.74;102791.00;4972214;28;20042;-76
2022/04/30 06:18:15;;;;;;;22.00;13.57;;;;;;;5.36;88.01;102792.59;4973803;28;20049;-76
2022/04/30 06:20:40;;;;;;;22.55;13.32;;;;;;;5.45;87.19;102799.38;4957363;28;20286;-76
2022/04/30 06:23:06;;;;;;;18.73;13.18;;;;;;;5.48;87.59;102794.94;4975350;28;20122;-75
2022/04/30 06:25:31;;;;;;;21.08;14.55;;;;;;;5.58;88.94;102799.06;4959639;28;20078;-76
2022/04/30 06:27:57;;;;;;;21.00;13.38;;;;;;;5.63;88.21;102791.16;4969539;28;20049;-78
2022/04/30 06:30:23;;;;;;;21.45;13.95;;;;;;;5.73;88.79;102789.19;4974989;28;20136;-78
2022/04/30 06:32:48;;;;;;;18.85;13.40;;;;;;;5.78;87.86;102798.63;4970454;28;20038;-76
2022/04/30 06:35:14;;;;;;;19.60;13.90;;;;;;;5.84;87.70;102795.03;4972531;28;20479;-76
2022/04/30 06:37:42;;;;;;;20.98;14.55;;;;;;;5.94;87.92;102802.63;4979500;28;20028;-76
2022/04/30 06:40:08;;;;;;;20.40;13.63;;;;;;;6.03;88.00;102800.72;4972889;28;20035;-76
2022/04/30 06:42:41;;;;;;;19.08;12.95;;;;;;;6.11;87.02;102798.78;4988423;28;20022;-77
2022/04/30 06:45:08;;;;;;;19.70;13.43;;;;;;;6.21;87.16;102792.44;4972739;28;20035;-76
2022/04/30 06:47:34;;;;;;;22.42;13.10;;;;;;;6.32;87.71;102789.53;4972582;28;20509;-76
2022/04/30 06:49:59;;;;;;;20.42;12.63;;;;;;;6.37;86.60;102792.91;4971143;28;20031;-76
2022/04/30 06:52:25;;;;;;;18.13;12.82;;;;;;;6.47;86.37;102794.41;4967293;28;20027;-76
2022/04/30 06:57:34;;;;;;;19.05;12.90;;;;;;;6.67;86.04;102788.63;4973619;28;20557;-76
2022/04/30 06:59:59;;;;;;;19.75;13.20;;;;;;;6.79;86.16;102793.53;4972169;28;20074;-76
2022/04/30 07:02:30;;;;;;;14.77;12.30;;;;;;;6.85;85.22;102794.25;4970447;28;20053;-76
2022/04/30 07:04:55;;;;;;;17.08;11.98;;;;;;;6.94;84.94;102787.91;4972982;28;20035;-76
2022/04/30 07:07:21;;;;;;;19.77;12.30;;;;;;;7.05;85.12;102779.75;4972116;28;20465;-75
2022/04/30 07:09:47;;;;;;;17.95;11.13;;;;;;;7.14;83.73;102789.94;4972334;28;20435;-76
2022/04/30 07:12:14;;;;;;;16.00;10.75;;;;;;;7.24;83.82;102780.97;4980884;28;20592;-75
2022/04/30 07:14:44;;;;;;;17.52;10.82;;;;;;;7.37;83.45;102787.53;4970495;28;20062;-76
2022/04/30 07:17:11;;;;;;;15.57;10.77;;;;;;;7.51;83.32;102795.84;4971129;28;20186;-76
2022/04/30 07:19:37;;;;;;;15.32;10.65;;;;;;;7.65;82.66;102791.97;4970758;28;20403;-76
2022/04/30 07:22:07;;;;;;;17.20;10.25;;;;;;;7.80;82.42;102788.88;5003203;28;20035;-76
2022/04/30 07:24:33;;;;;;;15.30;10.07;;;;;;;7.92;80.93;102796.34;5008528;28;20022;-76
2022/04/30 07:27:00;;;;;;;17.35;10.02;;;;;;;7.99;79.06;102797.00;4977466;28;20449;-76
2022/04/30 07:29:25;;;;;;;15.43;9.30;;;;;;;8.12;78.93;102793.94;4977691;28;20026;-76
2022/04/30 07:31:51;;;;;;;14.63;9.70;;;;;;;8.26;79.43;102790.00;4983842;28;20126;-76
2022/04/30 07:34:16;;;;;;;15.90;9.50;;;;;;;8.41;79.70;102793.03;4970601;28;20034;-75
2022/04/30 07:36:41;;;;;;;13.35;8.98;;;;;;;8.55;79.50;102779.44;4971516;28;20436;-75
2022/04/30 07:39:07;;;;;;;12.55;8.55;;;;;;;8.72;77.99;102784.94;4972165;28;20033;-76
2022/04/30 07:41:32;;;;;;;11.68;8.02;;;;;;;8.88;77.66;102780.03;4971443;28;20033;-75
2022/04/30 07:43:59;;;;;;;14.13;8.48;;;;;;;9.02;76.63;102782.13;4971461;28;20037;-75
2022/04/30 07:46:25;;;;;;;12.77;8.18;;;;;;;9.16;76.16;102773.75;4972556;28;20026;-75
2022/04/30 07:48:50;;;;;;;14.20;8.75;;;;;;;9.24;75.04;102775.19;4967114;28;20026;-75
2022/04/30 07:51:23;;;;;;;11.45;7.57;;;;;;;9.30;74.20;102772.34;4971951;28;20023;-76
2022/04/30 07:53:49;;;;;;;;;;;;;;;9.39;75.94;102774.59;4971981;28;20042;-75
2022/04/30 07:56:17;;;;;;;12.68;7.68;;;;;;;9.51;73.64;102781.16;4977390;28;20380;-75
2022/04/30 07:58:42;;;;;;;9.07;7.85;;;;;;;9.55;72.77;102774.88;4971545;28;20027;-77
2022/04/30 08:01:07;;;;;;;9.73;7.03;;;;;;;9.62;71.55;102772.88;5002041;28;20034;-76
2022/04/30 08:03:33;;;;;;;10.70;7.07;;;;;;;9.69;71.91;102779.59;5003103;28;20054;-76
2022/04/30 08:05:59;;;;;;;11.43;6.80;;;;;;;9.73;70.86;102774.16;4971887;28;20035;-76
2022/04/30 08:08:24;;;;;;;12.32;6.97;;;;;;;9.79;70.78;102765.19;4970625;28;20518;-76
2022/04/30 08:10:49;;;;;;;10.35;7.20;;;;;;;9.86;70.76;102766.63;4972514;28;20598;-76
2022/04/30 08:13:15;;;;;;;14.32;6.82;;;;;;;9.94;70.43;102775.06;4971315;28;20035;-77
2022/04/30 08:15:43;;;;;;;9.95;5.70;;;;;;;9.95;69.10;102771.50;4970979;28;20094;-77
2022/04/30 08:18:10;;;;;;;12.05;6.68;;;;;;;10.03;69.44;102769.47;5000074;28;20035;-77
2022/04/30 08:20:37;;;;;;;9.73;5.90;;;;;;;10.05;69.40;102765.00;4962123;28;20030;-77
2022/04/30 08:23:04;;;;;;;12.02;6.63;;;;;;;10.12;68.37;102767.34;4970681;28;20027;-77
2022/04/30 08:25:29;;;;;;;10.07;6.47;;;;;;;10.12;69.35;102775.25;4971777;28;20038;-78
2022/04/30 08:27:54;;;;;;;10.02;6.28;;;;;;;10.18;68.76;102767.09;4971032;28;20034;-78
2022/04/30 08:30:20;;;;;;;9.07;6.40;;;;;;;10.17;69.49;102762.75;4971290;28;20110;-78
2022/04/30 08:32:47;;;;;;;11.02;6.30;;;;;;;10.21;68.32;102767.84;4970649;28;20029;-76
2022/04/30 08:35:13;;;;;;;8.98;5.82;;;;;;;10.20;68.29;102770.53;4966804;28;20080;-76
2022/04/30 08:37:38;;;;;;;10.38;6.43;;;;;;;10.17;68.38;102765.41;4970319;28;20048;-76
2022/04/30 08:40:04;;;;;;;11.48;6.47;;;;;;;10.19;67.81;102759.16;4971690;28;20746;-76
2022/04/30 08:42:30;;;;;;;9.23;5.55;;;;;;;10.24;68.49;102764.25;4967727;28;20031;-76
2022/04/30 08:44:56;;;;;;;9.65;5.97;;;;;;;10.23;68.27;102755.50;4970408;28;20029;-76
2022/04/30 08:47:21;;;;;;;12.00;6.00;;;;;;;10.22;68.35;102750.31;4970291;28;20038;-76
2022/04/30 08:49:47;;;;;;;9.05;6.15;;;;;;;10.23;67.78;102744.97;4971022;28;20184;-76
2022/04/30 08:52:15;;;;;;;12.10;6.60;;;;;;;10.20;67.91;102755.63;4964438;28;20034;-77
2022/04/30 08:54:40;;;;;;;8.80;6.20;;;;;;;10.21;68.09;102741.56;4971951;28;20625;-77
2022/04/30 08:57:06;;;;;;;10.25;5.95;;;;;;;10.20;67.11;102744.22;5001080;28;20026;-77
2022/04/30 08:59:31;;;;;;;10.07;6.40;;;;;;;10.20;67.11;102744.22;4965034;28;20034;-76
2022/04/30 09:01:58;;;;;;;10.32;6.57;;;;;;;10.25;67.84;102756.28;4971043;28;20026;-77
2022/04/30 09:04:25;;;;;;;9.07;6.90;;;;;;;10.27;67.63;102746.56;4969233;28;20042;-76
2022/04/30 09:06:53;;;;;;;10.75;6.82;;;;;;;10.29;67.75;102754.38;4969823;28;20093;-75
2022/04/30 09:09:29;;;;;;;10.88;7.40;;;;;;;10.34;67.90;102737.47;4970726;28;20031;-76
2022/04/30 09:12:05;;;;;;;11.18;7.32;;;;;;;10.40;68.21;102732.88;4968925;28;20058;-76
2022/04/30 09:14:31;;;;;;;10.98;6.60;;;;;;;10.39;67.15;102742.53;4972024;28;20031;-76
2022/04/30 09:17:06;;;;;;;10.23;6.38;;;;;;;10.43;67.58;102736.25;5001640;28;20031;-76
2022/04/30 09:19:33;;;;;;;9.07;5.47;;;;;;;10.42;66.13;102745.06;4971413;28;20063;-76
2022/04/30 09:21:59;;;;;;;6.57;5.30;;;;;;;10.43;65.83;102746.78;4969383;28;20038;-76
2022/04/30 09:24:25;;;;;;;9.77;5.57;;;;;;;10.47;67.26;102742.22;4967778;28;20027;-77
2022/04/30 09:26:52;;;;;;;8.07;5.70;;;;;;;10.49;66.16;102740.38;4969079;28;20085;-77
2022/04/30 09:29:22;;;;;;;8.80;5.97;;;;;;;10.49;65.96;102740.38;4972359;28;20037;-77
2022/04/30 09:31:50;;;;;;;10.98;6.63;;;;;;;10.49;65.32;102735.97;4971461;28;20023;-78
2022/04/30 09:39:43;;;;;;;10.02;6.47;;;;;;;10.58;65.26;102732.09;4970388;28;20521;-77
2022/04/30 09:42:08;;;;;;;10.48;7.00;;;;;;;10.59;64.56;102726.75;4952264;28;20066;-76
2022/04/30 09:44:37;;;;;;;8.05;6.28;;;;;;;10.59;64.84;102724.13;4964720;28;20018;-77
2022/04/30 09:47:07;;;;;;;9.38;6.35;;;;;;;10.65;64.52;102712.47;4967707;28;20030;-77
2022/04/30 09:55:06;;;;;;;8.45;6.60;;;;;;;10.87;63.31;102709.75;4969074;28;20144;-77
2022/04/30 09:57:34;;;;;;;9.25;6.25;;;;;;;10.94;63.35;102711.16;4969216;28;20022;-79
2022/04/30 10:00:00;;;;;;;14.18;5.88;;;;;;;11.00;62.86;102700.34;4999132;28;20015;-77
2022/04/30 10:02:28;;;;;;;10.48;6.20;;;;;;;11.06;61.27;102704.47;4969696;28;20045;-77
2022/04/30 10:04:55;;;;;;;10.63;5.90;;;;;;;11.11;62.01;102703.31;4984826;28;20058;-78
2022/04/30 10:07:24;;;;;;;6.13;5.20;;;;;;;11.16;60.25;102701.31;4968879;28;20502;-78
2022/04/30 10:10:05;;;;;;;8.50;4.93;;;;;;;11.21;60.65;102695.88;4969014;28;20023;-78
2022/04/30 10:13:02;;;;;;;7.07;5.00;;;;;;;11.29;60.78;102696.38;4963994;28;20062;-78
2022/04/30 10:15:30;;;;;;;6.28;4.85;;;;;;;11.32;58.11;102690.94;4965889;28;20149;-77
2022/04/30 10:17:57;;;;;;;6.60;5.03;;;;;;;11.38;58.26;102700.34;4969339;28;20031;-78
2022/04/30 10:20:34;;;;;;;8.07;5.30;;;;;;;11.41;59.13;102690.50;4969570;28;20031;-78
2022/04/30 10:23:00;;;;;;;9.13;5.60;;;;;;;11.43;57.89;102688.63;4968156;28;20049;-78
2022/04/30 10:25:34;;;;;;;6.30;5.45;;;;;;;11.51;59.01;102691.75;4970604;28;20072;-78
2022/04/30 10:28:15;;;;;;;6.70;4.70;;;;;;;11.53;58.63;102681.13;4970355;28;20077;-78
2022/04/30 10:30:42;;;;;;;7.93;4.43;;;;;;;11.60;56.81;102686.03;4969847;28;20023;-77
2022/04/30 10:33:09;;;;;;;5.38;4.13;;;;;;;11.67;55.77;102686.59;4970196;28;20034;-78
2022/04/30 10:35:38;;;;;;;5.63;3.92;;;;;;;11.70;54.81;102685.59;4970422;28;20389;-76
2022/04/30 10:38:13;;;;;;;6.65;4.18;;;;;;;11.75;55.44;102681.81;4964539;28;20054;-77
2022/04/30 10:40:39;;;;;;;6.72;4.45;;;;;;;11.75;54.90;102680.94;4951694;29;20027;-77
2022/04/30 10:43:26;;;;;;;6.38;4.40;;;;;;;11.82;56.02;102666.56;4950291;28;20723;-77
2022/04/30 10:45:52;;;;;;;6.57;4.18;;;;;;;11.95;56.75;102666.78;4951612;28;20106;-79
2022/04/30 10:48:19;;;;;;;5.32;3.80;;;;;;;12.14;56.11;102664.94;4951028;29;20118;-77
2022/04/30 10:50:45;;;;;;;6.30;4.05;;;;;;;12.34;55.69;102655.97;4950710;28;20027;-78
2022/04/30 10:53:13;;;;;;;6.43;4.20;;;;;;;12.52;55.61;102649.75;4950406;29;20038;-78
2022/04/30 10:55:41;;;;;;;5.88;4.40;;;;;;;12.70;53.24;102648.72;4953841;28;20027;-79
2022/04/30 10:58:07;;;;;;;5.75;4.10;;;;;;;12.96;53.78;102649.13;4953377;29;20125;-78
2022/04/30 11:00:32;;;;;;;5.30;4.28;;;;;;;13.09;52.29;102639.56;4957512;28;20563;-79
2022/04/30 11:03:08;;;;;;;8.65;4.05;;;;;;;13.22;52.30;102640.63;4954648;29;20036;-79
2022/04/30 11:05:35;;;;;;;8.02;4.55;;;;;;;13.25;48.98;102639.59;4963059;28;20026;-79
2022/04/30 11:08:03;;;;;;;6.05;4.10;;;;;;;13.37;49.93;102629.19;4990038;28;20027;-79
2022/04/30 11:10:32;;;;;;;9.82;4.22;;;;;;;13.57;49.37;102628.00;4988857;28;20497;-79
2022/04/30 11:13:07;;;;;;;4.63;3.67;;;;;;;13.76;50.57;102620.72;4973477;28;20030;-79
2022/04/30 11:15:33;;;;;;;6.13;3.90;;;;;;;14.01;49.41;102622.78;4973541;28;20069;-79
2022/04/30 11:17:59;;;;;;;5.32;4.20;;;;;;;14.16;49.67;102618.34;4973086;28;20034;-79
2022/04/30 11:20:26;;;;;;;5.60;3.95;;;;;;;14.32;49.68;102611.16;4973099;28;20158;-79
2022/04/30 11:22:55;;;;;;;4.55;3.58;;;;;;;14.53;49.29;102616.97;4968931;28;20023;-77
2022/04/30 11:25:21;;;;;;;6.22;3.70;;;;;;;14.70;47.83;102610.59;4984134;28;20023;-78
2022/04/30 11:27:46;;;;;;;9.07;4.05;;;;;;;14.81;46.72;102600.19;4954228;28;20029;-77
2022/04/30 11:30:12;;;;;;;6.25;3.97;;;;;;;14.92;45.21;102608.28;4985231;28;20078;-77
2022/04/30 11:32:37;;;;;;;6.45;3.92;;;;;;;15.10;44.82;102600.09;4977054;28;20097;-78
2022/04/30 11:35:06;;;;;;;4.53;3.80;;;;;;;15.10;42.97;102594.78;4972784;28;20019;-77
2022/04/30 11:37:38;;;;;;;8.10;3.80;;;;;;;15.14;43.20;102590.97;4973448;28;20040;-77
2022/04/30 11:40:04;;;;;;;7.95;4.10;;;;;;;15.18;43.90;102595.13;4971893;28;20030;-77
2022/04/30 11:42:30;;;;;;;5.38;3.70;;;;;;;15.30;44.39;102584.59;4973601;28;20038;-79
2022/04/30 11:44:55;;;;;;;4.97;3.40;;;;;;;15.31;43.98;102593.41;4971290;28;20027;-78
2022/04/30 11:47:21;;;;;;;5.03;3.40;;;;;;;15.33;43.25;102596.78;4972442;28;20537;-78
2022/04/30 11:49:46;;;;;;;6.20;4.38;;;;;;;15.23;44.19;102595.72;4972892;28;20102;-78
2022/04/30 11:52:14;;;;;;;9.93;5.70;;;;;;;15.17;45.72;102593.44;4972968;28;20031;-78
2022/04/30 11:54:41;;;;;;;8.55;5.28;;;;;;;15.01;46.31;102597.09;4972431;28;20110;-79
2022/04/30 11:57:07;;;;;;;8.35;5.45;;;;;;;14.83;46.94;102602.75;4971336;28;20023;-78
2022/04/30 11:59:36;;;;;;;8.43;5.88;;;;;;;14.65;47.70;102596.78;4971600;28;20407;-78
2022/04/30 12:02:03;;;;;;;8.80;5.97;;;;;;;14.48;47.77;102597.84;4970858;28;20387;-78